createdAt,value
2019-05-01T00:01:30.243Z,60.83
2019-05-01T00:04:39.202Z,64.07
2019-05-01T00:07:21.881Z,64.92
2019-05-01T00:09:59.139Z,67.47
2019-05-01T00:12:34.520Z,65.72
2019-05-01T00:15:10.331Z,70.97
2019-05-01T00:17:45.789Z,66.85
2019-05-01T00:20:21.139Z,69.65
2019-05-01T00:22:56.473Z,68.10
2019-05-01T00:25:31.893Z,64.35
2019-05-01T00:28:07.628Z,66.80
2019-05-01T00:30:43.090Z,63.85
2019-05-01T00:33:18.593Z,67.35
2019-05-01T00:35:54.051Z,66.40
2019-05-01T00:38:29.357Z,66.22
2019-05-01T00:41:05.002Z,66.37
2019-05-01T00:43:40.343Z,62.23
2019-05-01T00:46:15.704Z,66.22
2019-05-01T00:48:51.162Z,60.08
2019-05-01T00:51:26.646Z,57.13
2019-05-01T00:54:02.060Z,60.65
2019-05-01T00:56:56.462Z,57.45
2019-05-01T00:59:44.724Z,59.33
2019-05-01T01:02:41.252Z,61.80
2019-05-01T01:05:20.616Z,64.03
2019-05-01T01:07:56.074Z,64.20
2019-05-01T01:10:38.483Z,65.15
2019-05-01T01:13:13.868Z,63.65
2019-05-01T01:15:49.160Z,67.65
2019-05-01T01:18:25.568Z,65.70
2019-05-01T01:21:00.932Z,62.78
2019-05-01T01:23:36.602Z,69.32
2019-05-01T01:26:11.985Z,65.22
2019-05-01T01:28:47.589Z,62.33
2019-05-01T01:31:22.988Z,68.17
2019-05-01T01:33:58.419Z,61.85
2019-05-01T01:36:33.755Z,69.10
2019-05-01T01:39:09.303Z,60.00
2019-05-01T01:41:45.773Z,67.60
2019-05-01T01:44:31.161Z,64.97
2019-05-01T01:47:06.553Z,61.15
2019-05-01T01:49:43.603Z,61.37
2019-05-01T01:52:19.140Z,62.27
2019-05-01T01:54:55.359Z,65.87
2019-05-01T01:57:31.340Z,66.47
2019-05-01T02:00:08.616Z,62.70
2019-05-01T02:02:51.036Z,64.90
2019-05-01T02:05:29.746Z,61.53
2019-05-01T02:08:05.419Z,67.10
2019-05-01T02:10:43.006Z,67.90
2019-05-01T02:13:17.941Z,66.57
2019-05-01T02:15:53.599Z,64.72
2019-05-01T02:18:29.038Z,69.35
2019-05-01T02:21:04.404Z,68.90
2019-05-01T02:23:39.786Z,74.72
2019-05-01T02:26:16.882Z,72.37
2019-05-01T02:29:20.256Z,68.55
2019-05-01T02:31:57.546Z,70.97
2019-05-01T02:34:33.013Z,75.75
2019-05-01T02:37:11.118Z,77.55
2019-05-01T02:39:48.543Z,73.80
2019-05-01T02:42:28.284Z,77.97
2019-05-01T02:45:05.645Z,75.35
2019-05-01T02:47:44.071Z,73.33
2019-05-01T02:50:21.512Z,68.80
2019-05-01T02:52:57.049Z,77.00
2019-05-01T02:55:38.797Z,74.12
2019-05-01T02:58:14.737Z,70.40
2019-05-01T03:00:50.149Z,73.30
2019-05-01T03:03:25.746Z,73.62
2019-05-01T03:06:02.261Z,74.97
2019-05-01T03:08:39.128Z,74.90
2019-05-01T03:11:14.437Z,74.22
2019-05-01T03:13:52.373Z,73.47
2019-05-01T03:16:27.887Z,74.20
2019-05-01T03:19:06.803Z,75.47
2019-05-01T03:21:47.723Z,75.30
2019-05-01T03:24:25.296Z,71.62
2019-05-01T03:27:00.854Z,79.17
2019-05-01T03:29:36.541Z,75.00
2019-05-01T03:32:18.231Z,72.35
2019-05-01T03:34:53.308Z,76.17
2019-05-01T03:37:31.765Z,73.45
2019-05-01T03:40:07.505Z,79.10
2019-05-01T03:42:43.122Z,78.12
2019-05-01T03:45:18.819Z,76.85
2019-05-01T03:47:54.788Z,83.40
2019-05-01T03:50:30.210Z,78.60
2019-05-01T03:53:05.703Z,81.57
2019-05-01T03:55:41.473Z,81.53
2019-05-01T03:58:17.314Z,83.67
2019-05-01T04:01:24.023Z,86.35
2019-05-01T04:04:06.058Z,82.65
2019-05-01T04:06:41.689Z,78.50
2019-05-01T04:09:17.178Z,80.30
2019-05-01T04:11:52.541Z,77.62
2019-05-01T04:14:27.959Z,80.83
2019-05-01T04:17:18.800Z,81.78
2019-05-01T04:19:55.171Z,88.78
2019-05-01T04:22:30.737Z,74.82
2019-05-01T04:25:06.642Z,89.65
2019-05-01T04:27:43.999Z,107.80
2019-05-01T04:30:31.928Z,99.95
2019-05-01T04:33:12.730Z,77.78
2019-05-01T04:35:53.481Z,87.22
2019-05-01T04:38:28.933Z,98.62
2019-05-01T04:41:04.404Z,98.25
2019-05-01T04:43:40.594Z,92.17
2019-05-01T04:46:16.377Z,85.15
2019-05-01T04:48:51.879Z,89.58
2019-05-01T04:51:27.697Z,87.00
2019-05-01T04:54:03.446Z,85.70
2019-05-01T04:56:38.761Z,89.97
2019-05-01T04:59:14.570Z,87.10
2019-05-01T05:01:56.960Z,85.40
2019-05-01T05:04:32.223Z,91.87
2019-05-01T05:07:07.980Z,91.90
2019-05-01T05:09:44.688Z,88.97
2019-05-01T05:12:37.832Z,81.12
2019-05-01T05:15:38.074Z,86.92
2019-05-01T05:18:14.172Z,95.50
2019-05-01T05:20:50.190Z,93.50
2019-05-01T05:23:25.916Z,96.20
2019-05-01T05:26:01.526Z,92.62
2019-05-01T05:28:38.601Z,97.65
2019-05-01T05:31:14.660Z,93.33
2019-05-01T05:33:50.210Z,90.15
2019-05-01T05:36:28.226Z,88.30
2019-05-01T05:39:18.687Z,103.25
2019-05-01T05:41:55.966Z,94.97
2019-05-01T05:44:31.458Z,103.83
2019-05-01T05:47:07.141Z,101.87
2019-05-01T05:49:42.576Z,112.50
2019-05-01T05:52:40.077Z,98.10
2019-05-01T05:55:27.491Z,107.27
2019-05-01T05:58:21.617Z,98.00
2019-05-01T06:01:34.083Z,91.42
2019-05-01T06:04:28.702Z,91.32
2019-05-01T06:13:32.425Z,106.22
2019-05-01T06:16:17.437Z,102.62
2019-05-01T06:19:14.595Z,92.47
2019-05-01T06:22:26.337Z,103.38
2019-05-01T06:25:21.312Z,98.15
2019-05-01T06:27:50.896Z,96.90
2019-05-01T06:30:26.342Z,96.05
2019-05-01T06:33:04.207Z,90.92
2019-05-01T06:35:39.432Z,83.25
2019-05-01T06:38:17.477Z,84.58
2019-05-01T06:40:58.145Z,83.55
2019-05-01T06:44:13.222Z,83.70
2019-05-01T06:47:10.940Z,77.53
2019-05-01T06:50:01.267Z,79.25
2019-05-01T06:52:39.922Z,73.30
2019-05-01T06:55:15.484Z,76.67
2019-05-01T06:57:51.206Z,71.95
2019-05-01T07:00:26.670Z,72.90
2019-05-01T07:03:06.037Z,71.70
2019-05-01T07:05:40.036Z,66.90
2019-05-01T07:08:24.377Z,63.92
2019-05-01T07:10:52.883Z,62.27
2019-05-01T07:13:42.207Z,62.50
2019-05-01T07:16:17.664Z,60.40
2019-05-01T07:18:57.958Z,63.02
2019-05-01T07:21:32.814Z,59.23
2019-05-01T07:24:09.267Z,56.10
2019-05-01T07:26:47.991Z,59.33
2019-05-01T07:29:23.495Z,60.28
2019-05-01T07:32:01.707Z,65.22
2019-05-01T07:34:36.019Z,55.83
2019-05-01T07:37:11.771Z,59.77
2019-05-01T07:39:50.011Z,56.88
2019-05-01T07:42:31.639Z,57.88
2019-05-01T07:45:26.657Z,58.70
2019-05-01T07:48:05.641Z,59.40
2019-05-01T07:50:39.550Z,60.25
2019-05-01T07:53:14.996Z,61.83
2019-05-01T07:55:52.720Z,59.33
2019-05-01T07:58:27.874Z,63.87
2019-05-01T08:01:13.038Z,63.68
2019-05-01T08:03:48.339Z,66.33
2019-05-01T08:06:23.744Z,68.07
2019-05-01T08:09:11.256Z,65.32
2019-05-01T08:11:46.025Z,69.32
2019-05-01T08:14:24.368Z,68.85
2019-05-01T08:16:59.750Z,70.28
2019-05-01T08:19:50.048Z,70.60
2019-05-01T08:22:39.073Z,78.22
2019-05-01T08:25:14.774Z,74.10
2019-05-01T08:28:09.392Z,70.00
2019-05-01T08:31:06.556Z,78.80
2019-05-01T08:33:59.661Z,64.45
2019-05-01T08:36:35.042Z,70.72
2019-05-01T08:39:12.404Z,71.30
2019-05-01T08:41:47.703Z,78.15
2019-05-01T08:44:24.858Z,68.95
2019-05-01T08:47:25.639Z,71.70
2019-05-01T08:50:24.595Z,71.22
2019-05-01T08:52:56.021Z,78.47
2019-05-01T08:55:34.079Z,76.65
2019-05-01T08:58:13.992Z,77.78
2019-05-01T09:00:46.774Z,74.00
2019-05-01T09:03:22.191Z,75.92
2019-05-01T09:05:58.975Z,82.08
2019-05-01T09:08:34.439Z,85.45
2019-05-01T09:11:09.915Z,74.58
2019-05-01T09:13:45.349Z,80.20
2019-05-01T09:16:23.397Z,79.32
2019-05-01T09:18:58.001Z,78.52
2019-05-01T09:21:37.642Z,74.95
2019-05-01T09:24:11.462Z,76.92
2019-05-01T09:26:54.432Z,76.47
2019-05-01T09:29:38.490Z,80.85
2019-05-01T09:32:13.953Z,76.00
2019-05-01T09:34:49.391Z,78.97
2019-05-01T09:37:25.234Z,75.17
2019-05-01T09:40:04.223Z,75.05
2019-05-01T09:42:37.900Z,74.85
2019-05-01T09:45:16.942Z,78.90
2019-05-01T09:47:52.553Z,84.07
2019-05-01T09:50:30.516Z,76.25
2019-05-01T09:53:34.192Z,75.80
2019-05-01T09:56:13.598Z,74.32
2019-05-01T09:58:48.995Z,73.10
2019-05-01T10:01:31.730Z,69.27
2019-05-01T10:04:05.279Z,74.55
2019-05-01T10:06:39.487Z,74.12
2019-05-01T10:09:16.914Z,74.25
2019-05-01T10:11:52.107Z,73.15
2019-05-01T10:14:31.680Z,72.05
2019-05-01T10:17:05.020Z,75.70
2019-05-01T10:19:40.517Z,71.25
2019-05-01T10:22:16.295Z,84.05
2019-05-01T10:24:51.789Z,80.12
2019-05-01T10:27:30.979Z,74.85
2019-05-01T10:30:36.337Z,76.80
2019-05-01T10:33:16.078Z,75.08
2019-05-01T10:36:18.810Z,74.03
2019-05-01T10:38:52.797Z,73.17
2019-05-01T10:41:28.623Z,77.15
2019-05-01T10:44:05.184Z,73.35
2019-05-01T10:46:43.169Z,74.90
2019-05-01T10:49:18.549Z,72.70
2019-05-01T10:51:54.029Z,76.62
2019-05-01T10:54:29.440Z,76.92
2019-05-01T10:57:08.966Z,77.35
2019-05-01T10:59:44.399Z,76.90
2019-05-01T11:02:20.026Z,73.72
2019-05-01T11:04:55.523Z,75.10
2019-05-01T11:07:31.104Z,76.53
2019-05-01T11:10:08.113Z,75.57
2019-05-01T11:12:43.547Z,75.25
2019-05-01T11:15:19.473Z,70.50
2019-05-01T11:17:54.888Z,76.95
2019-05-01T11:20:30.322Z,76.28
2019-05-01T11:23:05.803Z,83.15
2019-05-01T11:25:41.480Z,74.03
2019-05-01T11:28:16.947Z,76.85
2019-05-01T11:30:52.338Z,76.30
2019-05-01T11:33:50.404Z,75.42
2019-05-01T11:36:48.215Z,78.30
2019-05-01T11:39:36.064Z,76.55
2019-05-01T11:42:13.858Z,77.12
2019-05-01T11:44:49.282Z,71.90
2019-05-01T11:47:25.814Z,77.95
2019-05-01T11:50:01.111Z,77.37
2019-05-01T11:52:36.599Z,74.47
2019-05-01T11:55:13.441Z,73.85
2019-05-01T11:57:48.988Z,76.77
2019-05-01T12:00:24.506Z,74.82
2019-05-01T12:02:59.938Z,78.40
2019-05-01T12:05:35.267Z,76.60
2019-05-01T12:08:10.667Z,78.00
2019-05-01T12:10:46.389Z,77.00
2019-05-01T12:13:21.915Z,74.67
2019-05-01T12:16:04.184Z,80.25
2019-05-01T12:18:39.536Z,83.17
2019-05-01T12:21:14.835Z,83.50
2019-05-01T12:23:50.501Z,83.05
2019-05-01T12:26:25.829Z,83.92
2019-05-01T12:29:01.393Z,80.67
2019-05-01T12:31:36.819Z,86.15
2019-05-01T12:34:12.295Z,82.60
2019-05-01T12:36:48.336Z,83.07
2019-05-01T12:39:23.862Z,83.05
2019-05-01T12:42:00.463Z,78.65
2019-05-01T12:44:35.884Z,79.47
2019-05-01T12:47:39.048Z,82.27
2019-05-01T12:50:15.594Z,85.90
2019-05-01T12:53:21.682Z,85.03
2019-05-01T12:56:15.955Z,83.07
2019-05-01T12:58:51.335Z,89.30
2019-05-01T13:01:26.814Z,79.05
2019-05-01T13:04:02.270Z,83.70
2019-05-01T13:06:48.881Z,80.47
2019-05-01T13:09:14.651Z,80.55
2019-05-01T13:11:50.202Z,78.22
2019-05-01T13:14:25.632Z,78.35
2019-05-01T13:17:01.030Z,81.30
2019-05-01T13:19:36.455Z,79.20
2019-05-01T13:22:11.927Z,81.28
2019-05-01T13:24:50.467Z,72.35
2019-05-01T13:27:33.555Z,71.40
2019-05-01T13:30:23.561Z,76.20
2019-05-01T13:33:00.603Z,77.67
2019-05-01T13:35:35.989Z,70.90
2019-05-01T13:38:11.583Z,74.32
2019-05-01T13:40:47.007Z,74.65
2019-05-01T13:43:22.666Z,71.70
2019-05-01T13:45:57.979Z,67.85
2019-05-01T13:48:33.431Z,72.47
2019-05-01T13:51:08.959Z,70.78
2019-05-01T13:53:44.358Z,72.08
2019-05-01T13:56:19.731Z,69.10
2019-05-01T13:58:55.170Z,71.00
2019-05-01T14:01:33.076Z,69.50
2019-05-01T14:04:08.682Z,74.42
2019-05-01T14:06:44.229Z,73.37
2019-05-01T14:09:29.668Z,71.40
2019-05-01T14:12:05.165Z,69.50
2019-05-01T14:14:40.660Z,69.60
2019-05-01T14:17:16.140Z,64.62
2019-05-01T14:20:01.938Z,66.42
2019-05-01T14:23:05.398Z,74.50
2019-05-01T14:25:58.547Z,69.65
2019-05-01T14:28:34.288Z,74.17
2019-05-01T14:31:09.724Z,68.42
2019-05-01T14:33:45.124Z,73.83
2019-05-01T14:36:27.893Z,74.27
2019-05-01T14:39:04.745Z,75.47
2019-05-01T14:41:41.915Z,72.62
2019-05-01T14:44:19.214Z,66.92
2019-05-01T14:46:55.333Z,69.07
2019-05-01T14:49:33.712Z,68.83
2019-05-01T14:52:14.116Z,71.65
2019-05-01T14:54:49.524Z,69.32
2019-05-01T14:57:24.878Z,67.70
2019-05-01T15:00:00.229Z,62.03
2019-05-01T15:02:37.247Z,66.05
2019-05-01T15:05:12.607Z,60.25
2019-05-01T15:07:48.013Z,58.63
2019-05-01T15:10:25.447Z,58.65
2019-05-01T15:13:03.235Z,57.43
2019-05-01T15:15:46.159Z,64.62
2019-05-01T15:18:29.583Z,60.67
2019-05-01T15:21:05.076Z,56.15
2019-05-01T15:23:52.581Z,58.15
2019-05-01T15:26:17.522Z,61.00
2019-05-01T15:28:53.340Z,53.45
2019-05-01T15:31:28.716Z,53.42
2019-05-01T15:34:04.290Z,51.13
2019-05-01T15:36:39.616Z,63.25
2019-05-01T15:39:49.646Z,61.68
2019-05-01T15:42:41.894Z,61.25
2019-05-01T15:45:17.408Z,56.45
2019-05-01T15:47:52.773Z,60.58
2019-05-01T15:50:31.258Z,64.05
2019-05-01T15:53:06.610Z,57.95
2019-05-01T15:55:42.009Z,58.23
2019-05-01T15:58:17.422Z,61.28
2019-05-01T16:00:52.925Z,55.40
2019-05-01T16:03:28.361Z,52.98
2019-05-01T16:06:03.762Z,51.50
2019-05-01T16:08:41.104Z,54.77
2019-05-01T16:11:43.988Z,60.35
2019-05-01T16:14:19.404Z,62.20
2019-05-01T16:16:54.957Z,63.87
2019-05-01T16:19:34.311Z,60.73
2019-05-01T16:22:09.733Z,61.18
2019-05-01T16:24:45.014Z,64.15
2019-05-01T16:27:20.514Z,65.32
2019-05-01T16:30:02.351Z,54.88
2019-05-01T16:32:37.961Z,57.03
2019-05-01T16:35:14.551Z,55.67
2019-05-01T16:37:53.765Z,54.75
2019-05-01T16:40:51.097Z,50.70
2019-05-01T16:43:26.397Z,58.20
2019-05-01T16:46:07.013Z,60.08
2019-05-01T16:48:42.419Z,51.00
2019-05-01T16:51:17.741Z,51.55
2019-05-01T16:53:53.003Z,52.88
2019-05-01T16:56:28.440Z,55.15
2019-05-01T16:59:03.762Z,51.60
2019-05-01T17:02:07.366Z,50.00
2019-05-01T17:04:48.669Z,45.03
2019-05-01T17:07:29.780Z,52.00
2019-05-01T17:10:22.614Z,56.33
2019-05-01T17:12:58.180Z,64.47
2019-05-01T17:15:40.809Z,55.70
2019-05-01T17:18:16.286Z,60.60
2019-05-01T17:20:51.781Z,64.70
2019-05-01T17:23:27.252Z,77.20
2019-05-01T17:26:02.929Z,70.03
2019-05-01T17:28:38.514Z,67.17
2019-05-01T17:31:14.124Z,69.47
2019-05-01T17:33:50.920Z,64.55
2019-05-01T17:36:26.727Z,70.22
2019-05-01T17:39:02.231Z,76.10
2019-05-01T17:41:39.135Z,75.20
2019-05-01T17:44:14.465Z,83.47
2019-05-01T17:46:53.147Z,74.47
2019-05-01T17:49:28.553Z,80.40
2019-05-01T17:52:04.189Z,85.62
2019-05-01T17:54:39.566Z,79.58
2019-05-01T17:57:15.087Z,83.52
2019-05-01T17:59:52.419Z,82.53
2019-05-01T18:02:34.776Z,80.97
2019-05-01T18:05:32.285Z,83.92
2019-05-01T18:08:07.729Z,83.40
2019-05-01T18:10:43.091Z,81.57
2019-05-01T18:13:18.645Z,84.92
2019-05-01T18:15:54.107Z,88.37
2019-05-01T18:18:29.586Z,80.80
2019-05-01T18:21:05.024Z,83.40
2019-05-01T18:24:00.057Z,87.27
2019-05-01T18:27:03.550Z,86.70
2019-05-01T18:29:47.010Z,81.70
2019-05-01T18:32:51.977Z,85.32
2019-05-01T18:35:24.456Z,85.28
2019-05-01T18:38:06.273Z,84.52
2019-05-01T18:40:45.373Z,84.52
2019-05-01T18:43:20.889Z,83.10
2019-05-01T18:45:57.964Z,87.78
2019-05-01T18:48:44.609Z,89.03
2019-05-01T18:51:21.455Z,82.78
2019-05-01T18:53:57.776Z,87.45
2019-05-01T18:56:38.147Z,84.25
2019-05-01T18:59:12.386Z,88.45
2019-05-01T19:01:49.721Z,85.60
2019-05-01T19:04:28.020Z,89.62
2019-05-01T19:07:04.459Z,91.75
2019-05-01T19:09:39.991Z,88.42
2019-05-01T19:12:16.094Z,84.28
2019-05-01T19:14:51.578Z,87.42
2019-05-01T19:17:27.094Z,88.72
2019-05-01T19:20:02.479Z,85.97
2019-05-01T19:22:37.932Z,84.75
2019-05-01T19:25:16.051Z,84.90
2019-05-01T19:27:51.572Z,92.80
2019-05-01T19:30:27.006Z,85.75
2019-05-01T19:33:02.707Z,83.30
2019-05-01T19:35:38.091Z,85.95
2019-05-01T19:38:14.427Z,86.08
2019-05-01T19:40:49.813Z,83.00
2019-05-01T19:43:25.339Z,81.80
2019-05-01T19:46:00.871Z,83.82
2019-05-01T19:48:36.496Z,80.65
2019-05-01T19:51:12.093Z,85.53
2019-05-01T19:53:51.752Z,82.45
2019-05-01T19:56:24.572Z,77.92
2019-05-01T19:59:00.208Z,85.42
2019-05-01T20:01:38.413Z,78.07
2019-05-01T20:04:15.134Z,78.10
2019-05-01T20:06:50.986Z,77.12
2019-05-01T20:09:26.786Z,78.25
2019-05-01T20:12:02.360Z,79.97
2019-05-01T20:14:37.882Z,81.00
2019-05-01T20:17:13.497Z,80.77
2019-05-01T20:19:48.989Z,80.30
2019-05-01T20:22:24.403Z,79.03
2019-05-01T20:24:59.910Z,84.22
2019-05-01T20:27:36.952Z,83.92
2019-05-01T20:30:13.770Z,88.05
2019-05-01T20:32:49.298Z,89.50
2019-05-01T20:35:28.458Z,87.50
2019-05-01T20:38:01.882Z,85.87
2019-05-01T20:40:38.397Z,89.55
2019-05-01T20:43:13.985Z,91.80
2019-05-01T20:45:51.246Z,97.37
2019-05-01T20:48:26.659Z,98.25
2019-05-01T20:51:02.061Z,95.65
2019-05-01T20:53:37.487Z,95.42
2019-05-01T20:56:33.438Z,99.60
2019-05-01T20:59:08.879Z,93.07
2019-05-01T21:01:44.297Z,97.65
2019-05-01T21:04:37.323Z,96.63
2019-05-01T21:07:33.576Z,94.42
2019-05-01T21:10:09.248Z,96.00
2019-05-01T21:12:44.892Z,94.92
2019-05-01T21:15:24.856Z,98.95
2019-05-01T21:17:57.384Z,91.30
2019-05-01T21:20:33.888Z,93.55
2019-05-01T21:23:11.656Z,92.25
2019-05-01T21:25:47.082Z,97.67
2019-05-01T21:28:24.013Z,94.62
2019-05-01T21:30:59.452Z,98.27
2019-05-01T21:33:34.815Z,94.35
2019-05-01T21:36:10.214Z,94.52
2019-05-01T21:38:46.714Z,97.12
2019-05-01T21:41:22.505Z,93.70
2019-05-01T21:43:57.951Z,97.78
2019-05-01T21:46:34.017Z,99.42
2019-05-01T21:49:09.663Z,100.33
2019-05-01T21:51:46.298Z,101.40
2019-05-01T21:54:22.033Z,99.58
2019-05-01T21:56:59.008Z,95.32
2019-05-01T21:59:35.317Z,96.67
2019-05-01T22:02:12.012Z,102.10
2019-05-01T22:04:47.475Z,104.53
2019-05-01T22:07:23.843Z,108.10
2019-05-01T22:10:00.026Z,103.95
2019-05-01T22:12:35.468Z,107.55
2019-05-01T22:15:19.242Z,107.52
2019-05-01T22:18:02.227Z,110.37
2019-05-01T22:20:42.763Z,108.20
2019-05-01T22:23:21.918Z,113.60
2019-05-01T22:25:58.797Z,109.12
2019-05-01T22:28:54.812Z,108.55
2019-05-01T22:31:52.899Z,102.58
2019-05-01T22:34:39.754Z,108.45
2019-05-01T22:37:15.162Z,112.00
2019-05-01T22:39:58.669Z,113.70
2019-05-01T22:42:34.089Z,111.77
2019-05-01T22:45:16.397Z,107.75
2019-05-01T22:47:52.277Z,114.12
2019-05-01T22:50:27.750Z,114.60
2019-05-01T22:53:03.198Z,114.00
2019-05-01T22:55:38.602Z,115.17
2019-05-01T22:58:14.061Z,117.67
2019-05-01T23:00:52.533Z,120.42
2019-05-01T23:03:40.820Z,119.55
2019-05-01T23:06:13.710Z,115.47
2019-05-01T23:08:49.101Z,123.07
2019-05-01T23:11:26.138Z,123.90
2019-05-01T23:14:08.657Z,121.77
2019-05-01T23:16:51.152Z,121.55
2019-05-01T23:19:27.839Z,114.25
2019-05-01T23:22:03.868Z,117.22
2019-05-01T23:24:39.324Z,118.45
2019-05-01T23:27:15.801Z,113.80
2019-05-01T23:29:51.221Z,118.67
2019-05-01T23:32:26.873Z,119.75
2019-05-01T23:35:02.305Z,126.07
2019-05-01T23:37:37.685Z,117.60
2019-05-01T23:40:15.507Z,119.70
2019-05-01T23:42:53.704Z,112.92
2019-05-01T23:45:27.324Z,115.00
2019-05-01T23:48:02.693Z,113.57
2019-05-01T23:50:38.177Z,112.30
2019-05-01T23:53:13.889Z,112.95
2019-05-01T23:55:54.720Z,135.28
2019-05-01T23:58:27.533Z,121.62
